Time;durP1;ratioP1;P1;durP2;ratioP2;P2;SDS_P1;SDS_P2;PMS_P1;PMS_P2;Temp;Humidity;BMP_temperature;BMP_pressure;BME280_temperature;BME280_humidity;BME280_pressure;Samples;Min_cycle;Max_cycle;Signal;HPM_P1;HPM_P2
2022/08/18 00:00:26;;;;;;;7.95;4.00;;;24.40;77.00;;;;;;4998350;28;20034;-62
2022/08/18 00:02:51;;;;;;;4.00;3.60;;;24.40;77.10;;;;;;5001370;28;20025;-62
2022/08/18 00:05:17;;;;;;;7.32;4.15;;;24.30;77.20;;;;;;4999159;28;20030;-62
2022/08/18 00:07:42;;;;;;;8.40;4.07;;;24.30;77.20;;;;;;4999110;28;20029;-62
2022/08/18 00:10:08;;;;;;;4.18;3.40;;;24.30;77.30;;;;;;4998677;28;20034;-62
2022/08/18 00:12:36;;;;;;;4.93;4.38;;;24.30;77.40;;;;;;4999555;28;20090;-62
2022/08/18 00:15:04;;;;;;;4.88;3.70;;;24.30;77.50;;;;;;4996904;28;20164;-62
2022/08/18 00:17:31;;;;;;;6.07;4.38;;;24.20;77.60;;;;;;4998939;28;20454;-62
2022/08/18 00:19:56;;;;;;;6.45;4.45;;;24.20;77.70;;;;;;4999854;28;20034;-63
2022/08/18 00:22:22;;;;;;;10.52;4.45;;;24.20;77.90;;;;;;4998989;28;20115;-62
2022/08/18 00:24:53;;;;;;;10.35;4.60;;;24.00;77.90;;;;;;4998281;28;20061;-62
2022/08/18 00:27:24;;;;;;;12.95;5.47;;;24.20;78.10;;;;;;4998808;28;20041;-63
2022/08/18 00:29:50;;;;;;;23.70;6.03;;;24.10;78.10;;;;;;4999831;28;20064;-62
2022/08/18 00:32:18;;;;;;;17.10;5.88;;;24.10;78.10;;;;;;5000329;28;20030;-62
2022/08/18 00:34:44;;;;;;;16.85;5.65;;;24.00;78.20;;;;;;4997441;28;20045;-62
2022/08/18 00:37:09;;;;;;;22.58;5.72;;;24.10;78.20;;;;;;4966031;28;20110;-63
2022/08/18 00:39:35;;;;;;;21.25;6.07;;;24.10;78.30;;;;;;4982015;28;20037;-62
2022/08/18 00:42:20;;;;;;;12.00;5.57;;;24.00;78.30;;;;;;4999282;28;20870;-62
2022/08/18 00:44:45;;;;;;;16.63;5.60;;;24.00;78.30;;;;;;4981086;28;20053;-62
2022/08/18 00:47:11;;;;;;;13.95;5.45;;;24.00;78.40;;;;;;4998783;28;20179;-62
2022/08/18 00:49:37;;;;;;;32.85;5.85;;;24.00;78.50;;;;;;4997051;28;20038;-62
2022/08/18 00:52:03;;;;;;;22.85;5.53;;;24.00;78.50;;;;;;4998508;28;20132;-62
2022/08/18 00:54:29;;;;;;;22.88;5.18;;;23.90;78.60;;;;;;4966894;28;20032;-62
2022/08/18 00:56:57;;;;;;;21.17;5.22;;;23.90;78.60;;;;;;5014357;28;20029;-62
2022/08/18 00:59:31;;;;;;;13.90;4.97;;;23.90;78.80;;;;;;4982488;28;20045;-62
2022/08/18 01:02:01;;;;;;;13.00;4.80;;;23.90;79.00;;;;;;4998927;28;20049;-63
2022/08/18 01:04:44;;;;;;;15.02;5.00;;;23.80;79.00;;;;;;5012235;28;20033;-63
2022/08/18 01:07:21;;;;;;;12.98;4.32;;;23.80;79.00;;;;;;4984516;28;20022;-62
2022/08/18 01:09:47;;;;;;;11.35;4.68;;;23.80;79.10;;;;;;5016250;28;20026;-63
2022/08/18 01:12:13;;;;;;;8.32;4.38;;;23.80;79.20;;;;;;4998177;28;20033;-63
2022/08/18 01:14:39;;;;;;;8.90;4.22;;;23.80;79.30;;;;;;4996454;28;20046;-62
2022/08/18 01:22:55;;;;;;;5.40;3.60;;;23.80;79.20;;;;;;4985006;28;20040;-62
2022/08/18 01:28:05;;;;;;;8.32;4.30;;;23.70;79.30;;;;;;4996976;28;20045;-64
2022/08/18 01:30:31;;;;;;;5.97;3.83;;;23.70;79.30;;;;;;4997965;28;20030;-62
2022/08/18 01:32:57;;;;;;;16.83;4.43;;;23.70;79.40;;;;;;4997754;28;20555;-62
2022/08/18 01:35:24;;;;;;;6.35;3.85;;;23.60;79.50;;;;;;4999373;28;20091;-62
2022/08/18 01:37:50;;;;;;;11.30;3.80;;;23.60;79.60;;;;;;4997837;28;20072;-62
2022/08/18 01:40:19;;;;;;;5.03;3.45;;;23.60;79.70;;;;;;4979929;28;20129;-62
2022/08/18 01:42:45;;;;;;;6.25;3.72;;;23.60;79.80;;;;;;4994591;28;20113;-62
2022/08/18 01:45:12;;;;;;;10.75;4.03;;;23.60;79.70;;;;;;4997787;28;20125;-62
2022/08/18 01:47:39;;;;;;;7.60;3.75;;;23.50;79.80;;;;;;4998820;28;20109;-62
2022/08/18 01:50:06;;;;;;;9.02;4.15;;;23.50;79.80;;;;;;4998795;28;20466;-62
2022/08/18 01:52:34;;;;;;;6.10;4.57;;;23.50;79.80;;;;;;5012916;28;20033;-62
2022/08/18 01:55:00;;;;;;;6.05;4.35;;;23.50;79.90;;;;;;4997265;28;20101;-62
2022/08/18 01:57:25;;;;;;;6.75;3.60;;;23.50;80.10;;;;;;4996860;28;20121;-62
2022/08/18 01:59:51;;;;;;;4.93;3.97;;;23.40;80.10;;;;;;4996926;28;20037;-61
2022/08/18 02:02:23;;;;;;;6.47;3.80;;;23.40;80.10;;;;;;4998583;28;21017;-62
2022/08/18 02:04:52;;;;;;;8.75;4.10;;;23.40;80.20;;;;;;4995241;28;20037;-63
2022/08/18 02:07:18;;;;;;;5.90;3.80;;;23.40;80.10;;;;;;4965844;28;20474;-62
2022/08/18 02:09:44;;;;;;;8.32;3.92;;;23.40;80.10;;;;;;4996493;28;20022;-62
2022/08/18 02:12:10;;;;;;;9.38;4.28;;;23.40;80.10;;;;;;4996247;28;20148;-62
2022/08/18 02:14:36;;;;;;;7.70;3.88;;;23.40;80.00;;;;;;4978026;28;20034;-63
2022/08/18 02:17:02;;;;;;;5.28;3.72;;;23.40;80.10;;;;;;4994423;28;20331;-62
2022/08/18 02:19:34;;;;;;;5.22;4.32;;;23.30;80.10;;;;;;4996562;28;20543;-62
2022/08/18 02:22:00;;;;;;;7.07;3.95;;;23.30;80.20;;;;;;4998287;28;20092;-62
2022/08/18 02:24:25;;;;;;;4.85;3.40;;;23.30;80.20;;;;;;4997939;28;20530;-63
2022/08/18 02:26:51;;;;;;;4.07;3.50;;;23.30;80.30;;;;;;4996381;28;20700;-63
2022/08/18 02:29:16;;;;;;;4.45;3.47;;;23.20;80.30;;;;;;4995354;28;20141;-62
2022/08/18 02:31:42;;;;;;;6.57;3.83;;;23.20;80.40;;;;;;4998537;28;20397;-62
2022/08/18 02:34:07;;;;;;;6.22;4.10;;;23.20;80.40;;;;;;4997357;28;20493;-62
2022/08/18 02:36:33;;;;;;;5.68;3.90;;;23.20;80.40;;;;;;4996027;28;20022;-62
2022/08/18 02:38:58;;;;;;;5.30;3.63;;;23.20;80.40;;;;;;4997697;28;20061;-62
2022/08/18 02:41:26;;;;;;;4.18;3.80;;;23.20;80.40;;;;;;4997386;28;20084;-62
2022/08/18 02:43:51;;;;;;;7.47;3.70;;;23.10;80.30;;;;;;4997466;28;20511;-62
2022/08/18 02:46:17;;;;;;;5.53;3.70;;;23.20;80.50;;;;;;4995648;28;20026;-62
2022/08/18 02:48:43;;;;;;;4.60;3.53;;;23.10;80.50;;;;;;4998639;28;20084;-62
2022/08/18 02:51:12;;;;;;;5.45;4.05;;;23.10;80.60;;;;;;4994848;28;20037;-62
2022/08/18 02:53:38;;;;;;;3.90;3.22;;;23.10;80.70;;;;;;4998133;28;20117;-63
2022/08/18 02:56:23;;;;;;;4.32;3.85;;;23.00;80.70;;;;;;4979387;28;20579;-62
2022/08/18 02:58:52;;;;;;;5.13;3.85;;;23.00;80.90;;;;;;4994508;28;20137;-62
2022/08/18 03:01:18;;;;;;;4.07;3.55;;;23.00;80.90;;;;;;4995195;28;20061;-62
2022/08/18 03:03:44;;;;;;;5.50;3.40;;;23.00;81.00;;;;;;4994671;28;20112;-62
2022/08/18 03:06:09;;;;;;;4.63;2.95;;;23.00;81.10;;;;;;4998072;28;20120;-62
2022/08/18 03:08:35;;;;;;;4.10;3.20;;;23.00;81.20;;;;;;4997017;28;20461;-62
2022/08/18 03:11:00;;;;;;;4.32;3.50;;;23.00;81.20;;;;;;4998523;28;20532;-62
2022/08/18 03:13:26;;;;;;;6.25;4.30;;;22.90;81.20;;;;;;4999184;28;20045;-62
2022/08/18 03:15:52;;;;;;;4.50;3.40;;;23.00;81.30;;;;;;4998540;28;20329;-62
2022/08/18 03:18:17;;;;;;;10.70;4.07;;;23.00;81.20;;;;;;5000789;28;20417;-62
2022/08/18 03:20:44;;;;;;;8.93;3.95;;;23.00;81.00;;;;;;5015256;28;20072;-62
2022/08/18 03:23:10;;;;;;;7.28;3.88;;;23.00;81.10;;;;;;5000129;28;20025;-62
2022/08/18 03:25:35;;;;;;;8.00;3.83;;;22.90;81.00;;;;;;4998582;28;20068;-62
2022/08/18 03:28:05;;;;;;;5.53;3.15;;;22.90;81.10;;;;;;5014442;28;20077;-62
2022/08/18 03:30:31;;;;;;;9.10;4.68;;;22.90;81.10;;;;;;4999962;28;20674;-62
2022/08/18 03:32:57;;;;;;;8.32;5.20;;;22.90;81.10;;;;;;4999878;28;20026;-62
2022/08/18 03:35:22;;;;;;;6.82;5.57;;;22.90;81.20;;;;;;5001586;28;20058;-62
2022/08/18 03:37:48;;;;;;;6.68;4.97;;;22.80;81.30;;;;;;4998565;28;20034;-62
2022/08/18 03:40:13;;;;;;;8.25;5.05;;;22.80;81.40;;;;;;4997967;28;20056;-62
2022/08/18 03:42:39;;;;;;;8.68;4.72;;;22.80;81.50;;;;;;4997735;28;20429;-62
2022/08/18 03:45:05;;;;;;;8.50;4.40;;;22.80;81.60;;;;;;4980998;28;20493;-62
2022/08/18 03:47:31;;;;;;;5.38;4.72;;;22.80;81.80;;;;;;4999538;28;20033;-63
2022/08/18 03:49:56;;;;;;;5.75;4.78;;;22.80;81.70;;;;;;4998688;28;20587;-62
2022/08/18 03:52:22;;;;;;;8.35;4.03;;;22.80;81.70;;;;;;4998296;28;20504;-62
2022/08/18 03:54:48;;;;;;;8.15;4.45;;;22.80;81.70;;;;;;5001555;28;20034;-62
2022/08/18 03:57:14;;;;;;;5.53;4.65;;;22.80;81.70;;;;;;4983064;28;20752;-62
2022/08/18 03:59:42;;;;;;;5.43;4.03;;;22.70;81.60;;;;;;5000274;28;20050;-62
2022/08/18 04:02:08;;;;;;;9.02;4.30;;;22.70;81.60;;;;;;4999412;28;20121;-62
2022/08/18 04:04:33;;;;;;;9.55;4.43;;;22.70;81.60;;;;;;5001483;28;20104;-62
2022/08/18 04:07:03;;;;;;;4.15;3.72;;;22.70;81.70;;;;;;4999925;28;20157;-62
2022/08/18 04:09:29;;;;;;;17.90;4.65;;;22.70;81.80;;;;;;4969297;28;20079;-62
2022/08/18 04:11:55;;;;;;;6.57;4.05;;;22.70;81.80;;;;;;4982108;28;20441;-62
2022/08/18 04:14:31;;;;;;;8.32;4.22;;;22.70;81.90;;;;;;5014326;28;20038;-62
2022/08/18 04:16:57;;;;;;;7.38;4.30;;;22.60;81.90;;;;;;4998130;28;20040;-62
2022/08/18 04:19:23;;;;;;;5.68;4.38;;;22.70;81.90;;;;;;5013171;28;20050;-62
2022/08/18 04:21:50;;;;;;;11.00;4.07;;;22.60;81.80;;;;;;5000093;28;20137;-62
2022/08/18 04:24:16;;;;;;;8.38;4.03;;;22.60;82.00;;;;;;5014826;28;20032;-62
2022/08/18 04:26:44;;;;;;;6.30;4.25;;;22.60;82.00;;;;;;4981066;28;20065;-62
2022/08/18 04:29:10;;;;;;;5.13;3.72;;;22.60;82.20;;;;;;4998994;28;20044;-63
2022/08/18 04:31:36;;;;;;;7.07;4.00;;;22.60;82.50;;;;;;4983782;28;20494;-63
2022/08/18 04:34:02;;;;;;;4.25;3.72;;;22.60;82.90;;;;;;4997640;28;20053;-62
2022/08/18 04:36:28;;;;;;;7.20;4.15;;;22.60;83.10;;;;;;4981448;28;20453;-62
2022/08/18 04:38:54;;;;;;;4.57;4.18;;;22.60;83.20;;;;;;4998359;28;20036;-62
2022/08/18 04:41:26;;;;;;;6.40;4.40;;;22.60;83.10;;;;;;4995775;28;20042;-62
2022/08/18 04:43:58;;;;;;;6.22;3.88;;;22.50;83.10;;;;;;4998223;28;20037;-62
2022/08/18 04:46:27;;;;;;;4.80;3.72;;;22.50;83.20;;;;;;5013874;28;20120;-62
2022/08/18 04:48:57;;;;;;;3.88;3.50;;;22.50;83.30;;;;;;4981565;28;20378;-63
2022/08/18 04:51:24;;;;;;;8.50;3.60;;;22.50;83.30;;;;;;5013586;28;20018;-62
2022/08/18 04:53:49;;;;;;;8.05;4.38;;;22.50;83.20;;;;;;5015524;28;20053;-62
2022/08/18 04:56:18;;;;;;;4.50;3.70;;;22.50;83.40;;;;;;4998423;28;20038;-62
2022/08/18 04:58:48;;;;;;;5.15;4.57;;;22.50;83.30;;;;;;4998945;28;20045;-62
2022/08/18 05:01:16;;;;;;;5.88;3.92;;;22.40;83.20;;;;;;4997301;28;20682;-62
2022/08/18 05:03:41;;;;;;;7.43;4.10;;;22.50;83.30;;;;;;4995328;28;20034;-61
2022/08/18 05:06:07;;;;;;;4.75;3.90;;;22.40;83.20;;;;;;4997478;28;20037;-62
2022/08/18 05:08:32;;;;;;;4.80;4.00;;;22.50;83.30;;;;;;4983241;28;20038;-62
2022/08/18 05:10:58;;;;;;;7.53;3.67;;;22.50;83.30;;;;;;4999358;28;20072;-62
2022/08/18 05:13:24;;;;;;;4.85;3.90;;;22.40;83.20;;;;;;4997096;28;20037;-62
2022/08/18 05:16:02;;;;;;;5.75;3.67;;;22.50;83.40;;;;;;4979948;28;20169;-63
2022/08/18 05:18:27;;;;;;;5.07;4.15;;;22.40;83.40;;;;;;4981183;28;20060;-62
2022/08/18 05:20:54;;;;;;;6.45;3.75;;;22.40;83.50;;;;;;4998058;28;20489;-62
2022/08/18 05:23:20;;;;;;;8.30;3.40;;;22.40;83.50;;;;;;5000080;28;20682;-62
2022/08/18 05:25:45;;;;;;;6.03;3.67;;;22.40;83.60;;;;;;4995108;28;20034;-62
2022/08/18 05:28:13;;;;;;;7.32;3.78;;;22.40;83.60;;;;;;5011756;28;20026;-62
2022/08/18 05:30:39;;;;;;;5.20;3.75;;;22.30;83.60;;;;;;4990590;28;20026;-62
2022/08/18 05:33:05;;;;;;;4.47;3.65;;;22.40;83.60;;;;;;4994608;28;20113;-62
2022/08/18 05:35:37;;;;;;;5.75;3.92;;;22.30;83.50;;;;;;4985011;28;20746;-62
2022/08/18 05:38:33;;;;;;;5.35;3.95;;;22.30;83.50;;;;;;4973802;28;20347;-62
2022/08/18 05:41:04;;;;;;;4.38;3.58;;;22.40;83.60;;;;;;5005832;28;20034;-62
2022/08/18 05:43:29;;;;;;;8.10;3.78;;;22.30;83.50;;;;;;4987879;28;20087;-62
2022/08/18 05:45:55;;;;;;;4.78;3.50;;;22.30;83.50;;;;;;4995444;28;20026;-62
2022/08/18 05:48:21;;;;;;;5.60;3.38;;;22.30;83.60;;;;;;4968448;28;20121;-62
2022/08/18 05:50:46;;;;;;;5.68;3.88;;;22.30;83.60;;;;;;5008531;28;20037;-62
2022/08/18 05:53:13;;;;;;;7.13;3.83;;;22.40;83.70;;;;;;4994242;28;20045;-62
2022/08/18 05:58:39;;;;;;;83.68;10.60;;;22.30;83.50;;;;;;4996420;28;20040;-62
2022/08/18 06:01:13;;;;;;;18.38;5.30;;;22.30;83.50;;;;;;4996963;28;20030;-62
2022/08/18 06:03:54;;;;;;;23.88;5.40;;;22.40;83.40;;;;;;4976673;28;20030;-62
2022/08/18 06:06:24;;;;;;;24.20;5.90;;;22.50;83.60;;;;;;4981101;28;20099;-62
2022/08/18 06:09:16;;;;;;;18.00;5.82;;;22.40;83.80;;;;;;4979331;28;20037;-62
2022/08/18 06:11:43;;;;;;;25.77;5.88;;;22.40;83.80;;;;;;4997558;28;20765;-62
2022/08/18 06:14:08;;;;;;;29.10;6.78;;;22.30;83.90;;;;;;4992195;28;20052;-62
2022/08/18 06:16:43;;;;;;;28.30;5.93;;;22.30;84.10;;;;;;4992467;28;20721;-62
2022/08/18 06:19:30;;;;;;;20.95;6.68;;;22.30;84.10;;;;;;4993703;28;20045;-62
2022/08/18 06:22:05;;;;;;;35.50;6.35;;;22.30;84.10;;;;;;4991050;28;20573;-62
2022/08/18 06:24:34;;;;;;;;;;;22.40;84.00;;;;;;5009008;28;20069;-62
2022/08/18 06:27:03;;;;;;;20.55;5.80;;;22.30;84.00;;;;;;4996010;28;19909;-62
2022/08/18 06:29:47;;;;;;;21.23;6.15;;;22.30;84.50;;;;;;5007521;28;20033;-62
2022/08/18 06:32:22;;;;;;;26.55;5.60;;;22.30;84.90;;;;;;4995585;28;20030;-62
2022/08/18 06:35:20;;;;;;;28.83;6.13;;;22.30;85.10;;;;;;4996742;28;20029;-62
2022/08/18 06:40:39;;;;;;;33.85;6.50;;;22.20;85.80;;;;;;4996897;28;20609;-62
2022/08/18 06:43:06;;;;;;;25.35;6.07;;;22.20;86.30;;;;;;4996699;28;20050;-62
2022/08/18 06:45:35;;;;;;;99.45;18.70;;;22.20;86.00;;;;;;5011432;28;20057;-63
2022/08/18 06:48:46;;;;;;;347.73;45.60;;;22.10;86.50;;;;;;4995838;28;20060;-64
2022/08/18 06:51:13;;;;;;;551.00;77.03;;;22.10;87.00;;;;;;4995951;28;20030;-63
2022/08/18 06:54:20;;;;;;;500.50;65.75;;;22.10;86.90;;;;;;4960698;28;20037;-63
2022/08/18 06:56:47;;;;;;;;;;;22.10;87.30;;;;;;4976584;28;20034;-63
2022/08/18 06:59:27;;;;;;;417.15;52.97;;;22.00;87.40;;;;;;4998587;28;19917;-64
2022/08/18 07:01:56;;;;;;;415.95;51.55;;;22.10;87.90;;;;;;4992542;28;20030;-63
2022/08/18 07:04:30;;;;;;;326.17;44.13;;;22.10;87.80;;;;;;4995633;28;20060;-64
2022/08/18 07:06:55;;;;;;;340.13;46.85;;;22.00;87.80;;;;;;4967511;28;20024;-63
2022/08/18 07:09:23;;;;;;;324.48;43.63;;;22.00;88.30;;;;;;4978288;28;20042;-63
2022/08/18 07:12:03;;;;;;;289.98;39.78;;;22.00;88.30;;;;;;5010493;28;20119;-63
2022/08/18 07:14:28;;;;;;;260.17;34.22;;;22.00;88.40;;;;;;4997962;28;20018;-62
2022/08/18 07:17:11;;;;;;;224.73;31.15;;;22.00;88.30;;;;;;4979160;28;20019;-63
2022/08/18 07:19:37;;;;;;;210.73;32.08;;;22.00;88.20;;;;;;4996519;28;20358;-63
2022/08/18 07:22:08;;;;;;;174.63;28.13;;;22.00;88.00;;;;;;4962514;28;20018;-65
2022/08/18 07:24:42;;;;;;;166.88;25.95;;;22.00;88.00;;;;;;4995505;28;20134;-63
2022/08/18 07:27:19;;;;;;;179.52;26.83;;;22.10;88.20;;;;;;4990827;28;20042;-63
2022/08/18 07:30:05;;;;;;;178.50;24.33;;;22.00;88.10;;;;;;5011224;28;20645;-63
2022/08/18 07:33:09;;;;;;;161.15;22.92;;;22.00;88.10;;;;;;4977697;28;20093;-63
2022/08/18 07:35:38;;;;;;;122.63;22.10;;;22.10;88.10;;;;;;5000082;28;20058;-63
2022/08/18 07:38:34;;;;;;;136.35;21.55;;;22.10;88.20;;;;;;4999251;28;20235;-62
2022/08/18 07:41:22;;;;;;;127.00;19.75;;;22.10;88.20;;;;;;4984014;28;20026;-62
2022/08/18 07:43:50;;;;;;;132.65;19.25;;;22.10;88.30;;;;;;4991417;28;20065;-62
2022/08/18 07:46:18;;;;;;;127.70;19.90;;;22.10;88.40;;;;;;5003831;28;20029;-62
2022/08/18 07:48:45;;;;;;;98.50;16.75;;;22.10;88.60;;;;;;5002538;28;21104;-64
2022/08/18 07:51:21;;;;;;;93.40;16.00;;;22.10;88.70;;;;;;4980060;28;20025;-64
2022/08/18 07:53:59;;;;;;;122.63;18.77;;;22.10;88.50;;;;;;5003133;28;20022;-61
2022/08/18 07:57:05;;;;;;;114.18;18.52;;;22.10;88.40;;;;;;5000828;28;20045;-62
2022/08/18 07:59:36;;;;;;;197.77;26.95;;;22.20;88.70;;;;;;4994111;28;20494;-62
2022/08/18 08:02:30;;;;;;;166.38;21.83;;;22.10;88.70;;;;;;5000748;28;20420;-63
2022/08/18 08:05:19;;;;;;;118.20;16.30;;;22.10;88.50;;;;;;4980744;28;20511;-62
2022/08/18 08:07:49;;;;;;;91.55;15.68;;;22.10;88.30;;;;;;4969576;28;20726;-62
2022/08/18 08:10:27;;;;;;;101.50;16.10;;;22.10;88.10;;;;;;4981851;28;20029;-62
2022/08/18 08:13:34;;;;;;;138.50;19.17;;;22.20;87.70;;;;;;4999254;28;20029;-62
2022/08/18 08:16:36;;;;;;;118.97;15.52;;;22.20;87.60;;;;;;4986772;28;20092;-62
2022/08/18 08:19:23;;;;;;;119.22;15.10;;;22.20;87.60;;;;;;4973198;28;20053;-62
2022/08/18 08:22:13;;;;;;;87.18;14.90;;;22.30;87.30;;;;;;4984622;28;20021;-62
2022/08/18 08:25:00;;;;;;;111.45;15.13;;;22.30;87.10;;;;;;5022982;28;20152;-62
2022/08/18 08:27:47;;;;;;;106.38;16.60;;;22.30;86.90;;;;;;5014308;28;20137;-62
2022/08/18 08:30:15;;;;;;;126.32;17.73;;;22.40;87.00;;;;;;5014776;28;20121;-62
2022/08/18 08:32:56;;;;;;;96.05;14.80;;;22.40;86.80;;;;;;4998619;28;20025;-62
2022/08/18 08:35:57;;;;;;;97.78;15.55;;;22.40;87.10;;;;;;4998318;28;20022;-62
2022/08/18 08:38:38;;;;;;;99.47;15.90;;;22.40;87.10;;;;;;5000855;28;20026;-62
2022/08/18 08:41:24;;;;;;;119.38;16.95;;;22.40;87.10;;;;;;4983583;28;20026;-62
2022/08/18 08:44:06;;;;;;;121.93;15.43;;;22.40;87.20;;;;;;4992155;28;20112;-62
2022/08/18 08:46:39;;;;;;;128.55;18.48;;;22.50;86.80;;;;;;4964400;28;20026;-61
2022/08/18 08:49:25;;;;;;;103.80;17.02;;;22.50;87.00;;;;;;4981321;28;20076;-62
2022/08/18 08:51:58;;;;;;;118.45;17.90;;;22.60;87.50;;;;;;4974580;28;20037;-62
2022/08/18 08:54:30;;;;;;;97.45;16.77;;;22.60;87.60;;;;;;4995006;28;20038;-62
2022/08/18 08:56:58;;;;;;;89.47;16.13;;;22.60;87.60;;;;;;4977196;28;20116;-62
2022/08/18 08:59:24;;;;;;;80.57;14.50;;;22.60;87.60;;;;;;5011295;28;20033;-62
2022/08/18 09:02:07;;;;;;;89.63;15.27;;;22.60;87.50;;;;;;4987509;28;20618;-62
2022/08/18 09:04:54;;;;;;;107.22;16.27;;;22.60;87.20;;;;;;4990781;28;20040;-64
2022/08/18 09:07:35;;;;;;;91.07;14.15;;;22.60;87.40;;;;;;4990534;28;20129;-63
2022/08/18 09:10:25;;;;;;;106.05;16.20;;;22.60;86.90;;;;;;4995428;28;20036;-62
2022/08/18 09:13:15;;;;;;;112.72;17.48;;;22.70;86.70;;;;;;4995779;28;20038;-61
2022/08/18 09:16:07;;;;;;;87.80;16.00;;;22.70;86.80;;;;;;4998882;28;20037;-61
2022/08/18 09:18:48;;;;;;;111.55;13.88;;;22.70;86.40;;;;;;4993381;28;20436;-62
2022/08/18 09:21:39;;;;;;;103.35;14.45;;;22.70;85.80;;;;;;4994347;28;20600;-61
2022/08/18 09:24:10;;;;;;;106.07;17.38;;;22.70;85.70;;;;;;5019799;28;20029;-61
2022/08/18 09:26:42;;;;;;;107.97;15.88;;;22.80;85.60;;;;;;4990371;28;20026;-62
2022/08/18 09:29:22;;;;;;;90.65;15.25;;;22.70;85.40;;;;;;4982936;28;20034;-63
2022/08/18 09:31:48;;;;;;;89.57;14.75;;;22.80;85.10;;;;;;5023704;28;20030;-63
2022/08/18 09:34:32;;;;;;;94.18;15.55;;;22.80;85.20;;;;;;4989983;28;20038;-63
2022/08/18 09:37:12;;;;;;;100.55;14.70;;;22.90;84.70;;;;;;5007845;28;20401;-64
2022/08/18 09:42:36;;;;;;;107.82;15.15;;;22.90;84.10;;;;;;4993579;28;22062;-63
2022/08/18 09:45:08;;;;;;;115.97;15.45;;;23.00;84.10;;;;;;4986008;28;20096;-64
2022/08/18 09:47:33;;;;;;;108.38;14.95;;;23.00;84.00;;;;;;4987920;28;20066;-63
2022/08/18 09:50:02;;;;;;;106.00;14.50;;;23.00;83.80;;;;;;4989753;28;20033;-63
2022/08/18 09:52:33;;;;;;;121.20;15.60;;;23.00;83.70;;;;;;4997036;28;20014;-63
2022/08/18 09:54:59;;;;;;;96.07;15.63;;;23.10;83.80;;;;;;4995314;28;20037;-62
2022/08/18 09:57:29;;;;;;;90.45;14.65;;;23.10;83.50;;;;;;4992821;28;20030;-62
2022/08/18 09:59:57;;;;;;;109.47;16.60;;;23.10;83.60;;;;;;4975385;28;20037;-62
2022/08/18 10:02:26;;;;;;;104.05;15.13;;;23.20;83.30;;;;;;4996669;28;20061;-62
2022/08/18 10:05:11;;;;;;;123.93;16.77;;;23.20;83.20;;;;;;4990709;28;20861;-62
2022/08/18 10:07:39;;;;;;;102.00;13.05;;;23.20;82.80;;;;;;4987336;28;20049;-62
2022/08/18 10:10:06;;;;;;;109.82;15.35;;;23.20;82.40;;;;;;4988134;28;20033;-62
2022/08/18 10:12:55;;;;;;;77.05;14.77;;;23.20;82.40;;;;;;4989830;28;20124;-62
2022/08/18 10:15:32;;;;;;;117.53;15.55;;;23.30;82.40;;;;;;4986685;28;20038;-62
2022/08/18 10:18:00;;;;;;;86.20;15.50;;;23.30;82.40;;;;;;4985007;28;20070;-62
2022/08/18 10:20:32;;;;;;;125.25;18.38;;;23.30;82.40;;;;;;4984946;28;20049;-62
2022/08/18 10:22:57;;;;;;;93.03;17.77;;;23.30;82.50;;;;;;4991863;28;20037;-62
2022/08/18 10:25:38;;;;;;;127.18;16.92;;;23.30;82.70;;;;;;4991177;28;20038;-63
2022/08/18 10:28:05;;;;;;;94.00;16.15;;;23.30;82.60;;;;;;4986946;28;20509;-62
2022/08/18 10:30:34;;;;;;;93.55;15.43;;;23.40;82.60;;;;;;4986546;28;20032;-63
2022/08/18 10:33:01;;;;;;;116.95;17.60;;;23.40;82.30;;;;;;4993715;28;20101;-62
2022/08/18 10:35:36;;;;;;;111.53;17.55;;;23.50;82.40;;;;;;5008324;28;20080;-63
2022/08/18 10:38:16;;;;;;;126.63;17.95;;;23.50;82.20;;;;;;4994049;28;20045;-63
2022/08/18 10:40:42;;;;;;;125.65;18.58;;;23.50;81.90;;;;;;5008925;28;20026;-62
2022/08/18 10:43:17;;;;;;;108.13;16.02;;;23.60;82.60;;;;;;5023693;28;20143;-63
2022/08/18 10:45:44;;;;;;;609.85;64.65;;;23.60;82.50;;;;;;4985021;28;20112;-62
2022/08/18 10:48:24;;;;;;;140.32;18.58;;;23.60;81.60;;;;;;4987244;28;20053;-62
2022/08/18 10:51:06;;;;;;;104.60;15.02;;;23.60;81.50;;;;;;4986008;28;20034;-61
2022/08/18 10:53:51;;;;;;;107.38;16.52;;;23.60;81.30;;;;;;4990951;28;20100;-61
2022/08/18 10:56:27;;;;;;;111.35;16.73;;;23.60;81.30;;;;;;5019590;28;20049;-61
2022/08/18 10:58:55;;;;;;;112.10;15.68;;;23.70;81.20;;;;;;4972770;28;20486;-61
2022/08/18 11:01:52;;;;;;;104.70;15.80;;;23.70;81.30;;;;;;4982004;28;20048;-61
2022/08/18 11:04:23;;;;;;;;;;;23.80;81.20;;;;;;4992639;28;20061;-62
2022/08/18 11:06:50;;;;;;;119.13;14.55;;;23.80;81.10;;;;;;4986254;28;20059;-61
2022/08/18 11:09:23;;;;;;;98.82;13.77;;;23.80;81.10;;;;;;4962262;28;20959;-61
2022/08/18 11:11:50;;;;;;;87.28;13.85;;;23.80;80.90;;;;;;4973599;28;20033;-62
2022/08/18 11:14:22;;;;;;;80.07;13.73;;;23.80;81.00;;;;;;4976622;28;20052;-61
2022/08/18 11:16:56;;;;;;;95.45;14.85;;;23.80;81.00;;;;;;4990686;28;20120;-61
2022/08/18 11:19:22;;;;;;;70.85;12.68;;;23.80;81.10;;;;;;5004613;28;21685;-61
2022/08/18 11:21:48;;;;;;;83.82;14.60;;;23.90;81.10;;;;;;4996134;28;20065;-61
2022/08/18 11:24:23;;;;;;;76.38;12.85;;;23.70;80.90;;;;;;4992337;28;20135;-61
2022/08/18 11:26:55;;;;;;;72.47;12.50;;;23.90;81.30;;;;;;4985193;28;20069;-61
2022/08/18 11:29:33;;;;;;;64.13;11.50;;;24.00;81.40;;;;;;5007647;28;20099;-61
2022/08/18 11:32:18;;;;;;;68.82;11.10;;;24.00;81.30;;;;;;4987228;28;20033;-61
2022/08/18 11:34:56;;;;;;;73.95;11.93;;;24.00;81.20;;;;;;4999176;28;20136;-61
2022/08/18 11:37:24;;;;;;;71.65;11.88;;;24.10;81.10;;;;;;4974844;28;20180;-61
2022/08/18 11:39:51;;;;;;;83.03;12.77;;;24.10;80.80;;;;;;4983743;28;20248;-61
2022/08/18 11:42:17;;;;;;;58.08;12.32;;;24.10;80.70;;;;;;5003486;28;20090;-61
2022/08/18 11:44:42;;;;;;;91.90;13.63;;;24.20;80.70;;;;;;4966285;28;20108;-62
2022/08/18 11:47:16;;;;;;;86.18;12.10;;;24.20;80.70;;;;;;4985247;28;20041;-62
2022/08/18 11:49:51;;;;;;;63.42;12.43;;;24.20;80.50;;;;;;4992889;28;20037;-61
2022/08/18 11:52:25;;;;;;;51.17;9.63;;;24.20;80.50;;;;;;4986809;28;20109;-62
2022/08/18 11:54:51;;;;;;;65.65;10.90;;;24.30;80.40;;;;;;4969781;28;20049;-61
2022/08/18 11:57:53;;;;;;;51.47;11.07;;;24.30;80.20;;;;;;4979948;28;20041;-61
2022/08/18 12:00:38;;;;;;;55.67;11.02;;;24.30;80.10;;;;;;4986482;28;20034;-61
2022/08/18 12:03:09;;;;;;;87.65;13.48;;;24.40;80.00;;;;;;4986802;28;20038;-61
2022/08/18 12:05:54;;;;;;;95.18;12.85;;;24.40;79.80;;;;;;4968406;28;20053;-61
2022/08/18 12:08:25;;;;;;;66.32;12.07;;;24.40;79.60;;;;;;4983218;28;20022;-61
2022/08/18 12:11:01;;;;;;;63.25;11.25;;;24.40;79.40;;;;;;5004381;28;20544;-62
2022/08/18 12:13:27;;;;;;;65.80;11.60;;;24.40;79.40;;;;;;4968261;28;20041;-61
2022/08/18 12:16:35;;;;;;;158.35;17.42;;;24.50;79.60;;;;;;4964865;28;20030;-62
2022/08/18 12:19:01;;;;;;;74.22;12.50;;;24.40;79.50;;;;;;4937577;28;21405;-58
2022/08/18 12:21:27;;;;;;;68.70;11.77;;;24.40;79.30;;;;;;4983761;28;20046;-61
2022/08/18 12:23:52;;;;;;;88.00;12.15;;;24.40;79.10;;;;;;4987504;28;20128;-61
2022/08/18 12:26:19;;;;;;;109.50;13.27;;;24.40;79.10;;;;;;4990585;28;20424;-61
2022/08/18 12:28:44;;;;;;;73.28;12.20;;;24.40;79.00;;;;;;4987097;28;20669;-61
2022/08/18 12:31:10;;;;;;;78.20;12.25;;;24.40;79.10;;;;;;4985269;28;21013;-62
2022/08/18 12:33:35;;;;;;;99.90;14.10;;;24.40;79.20;;;;;;5002564;28;20046;-61
2022/08/18 12:36:02;;;;;;;74.05;11.73;;;24.40;79.30;;;;;;4987726;28;20026;-61
2022/08/18 12:38:28;;;;;;;91.10;13.23;;;24.40;79.40;;;;;;4990336;28;20108;-60
2022/08/18 12:40:54;;;;;;;77.90;12.30;;;24.50;79.70;;;;;;4982992;28;20030;-63
2022/08/18 12:43:20;;;;;;;90.00;13.07;;;24.40;79.60;;;;;;4992372;28;20823;-61
2022/08/18 12:45:45;;;;;;;109.57;14.65;;;24.50;79.60;;;;;;4991156;28;20034;-63
2022/08/18 12:48:11;;;;;;;99.72;12.82;;;24.50;79.50;;;;;;4986516;28;20052;-62
2022/08/18 12:50:37;;;;;;;80.97;12.95;;;24.50;79.30;;;;;;4975254;28;20025;-62
2022/08/18 12:53:02;;;;;;;101.07;13.65;;;24.50;79.50;;;;;;4982482;28;20026;-63
2022/08/18 12:55:30;;;;;;;113.95;14.93;;;24.60;79.30;;;;;;5003146;28;20125;-62
2022/08/18 12:57:55;;;;;;;76.68;12.50;;;24.60;79.20;;;;;;4984697;28;20022;-62
2022/08/18 13:00:21;;;;;;;102.00;13.23;;;24.60;79.00;;;;;;4953015;28;20762;-64
2022/08/18 13:02:46;;;;;;;114.65;15.52;;;24.60;78.80;;;;;;4990121;28;20036;-63
2022/08/18 13:05:12;;;;;;;112.68;16.98;;;24.60;78.60;;;;;;4989588;28;20446;-62
2022/08/18 13:07:37;;;;;;;92.32;12.60;;;24.70;78.60;;;;;;5007192;28;20045;-63
2022/08/18 13:10:03;;;;;;;116.00;15.23;;;24.60;78.50;;;;;;4978197;28;21107;-62
2022/08/18 13:12:29;;;;;;;99.50;15.80;;;24.60;78.80;;;;;;4987156;28;20040;-63